Time;durP1;ratioP1;P1;durP2;ratioP2;P2;SDS_P1;SDS_P2;PMS_P1;PMS_P2;Temp;Humidity;BMP_temperature;BMP_pressure;BME280_temperature;BME280_humidity;BME280_pressure;Samples;Min_cycle;Max_cycle;Signal;HPM_P1;HPM_P2
2022/06/04 00:03:27;;;;;;;4.40;3.47;;;;;;;;;;10388127;28;20025;-48
2022/06/04 00:08:29;;;;;;;3.97;3.53;;;;;;;;;;10388161;28;20059;-47
2022/06/04 00:18:50;;;;;;;3.60;3.15;;;;;;;;;;10392148;28;20519;-49
2022/06/04 00:23:51;;;;;;;3.53;3.13;;;;;;;;;;10405430;28;20033;-46
2022/06/04 00:28:51;;;;;;;5.68;3.42;;;;;;;;;;10373885;28;20037;-49
2022/06/04 00:33:52;;;;;;;3.00;2.80;;;;;;;;;;10407799;28;20025;-48
2022/06/04 00:38:53;;;;;;;3.50;3.17;;;;;;;;;;10394812;28;20049;-48
2022/06/04 00:44:01;;;;;;;15.70;3.50;;;;;;;;;;10398852;28;20116;-48
2022/06/04 00:49:01;;;;;;;4.63;3.40;;;;;;;;;;10392933;28;20033;-47
2022/06/04 00:54:03;;;;;;;3.63;3.20;;;;;;;;;;10381149;28;20465;-48
2022/06/04 00:59:28;;;;;;;3.42;2.92;;;;;;;;;;10372661;28;20021;-49
2022/06/04 01:05:32;;;;;;;2.92;2.72;;;;;;;;;;10385709;28;20527;-48
2022/06/04 01:10:56;;;;;;;3.25;2.83;;;;;;;;;;10401583;28;20052;-48
2022/06/04 01:16:23;;;;;;;3.28;2.83;;;;;;;;;;10378661;28;20049;-48
2022/06/04 01:21:30;;;;;;;4.88;3.05;;;;;;;;;;10384902;28;20145;-47
2022/06/04 01:26:55;;;;;;;7.00;3.10;;;;;;;;;;10376287;28;20033;-49
2022/06/04 01:32:17;;;;;;;2.70;2.50;;;;;;;;;;10400660;28;20034;-49
2022/06/04 01:37:38;;;;;;;3.50;2.50;;;;;;;;;;10404403;28;20109;-47
2022/06/04 01:42:44;;;;;;;3.30;2.60;;;;;;;;;;10403752;28;20033;-47
2022/06/04 01:47:48;;;;;;;2.88;2.60;;;;;;;;;;10400728;28;20048;-48
2022/06/04 01:52:51;;;;;;;3.17;2.60;;;;;;;;;;10394837;28;20383;-47
2022/06/04 01:58:06;;;;;;;6.47;2.90;;;;;;;;;;10407494;28;20107;-48
2022/06/04 02:03:27;;;;;;;3.30;2.55;;;;;;;;;;10380586;28;20033;-47
2022/06/04 02:08:37;;;;;;;5.53;2.50;;;;;;;;;;10386553;28;20037;-47
2022/06/04 02:13:38;;;;;;;5.57;2.55;;;;;;;;;;10375269;28;20108;-47
2022/06/04 02:18:39;;;;;;;3.50;2.40;;;;;;;;;;10380084;28;20041;-49
2022/06/04 02:23:40;;;;;;;5.45;2.60;;;;;;;;;;10384780;28;20065;-49
2022/06/04 02:28:41;;;;;;;2.90;2.30;;;;;;;;;;10399874;28;20120;-48
2022/06/04 02:33:57;;;;;;;2.47;2.20;;;;;;;;;;10399255;28;20083;-47
2022/06/04 02:39:24;;;;;;;2.65;2.17;;;;;;;;;;10396984;28;20037;-48
2022/06/04 02:44:48;;;;;;;2.40;2.20;;;;;;;;;;10397938;28;20022;-48
2022/06/04 02:50:01;;;;;;;2.22;2.03;;;;;;;;;;10379727;28;20166;-49
2022/06/04 02:55:24;;;;;;;2.50;2.30;;;;;;;;;;10376013;28;20034;-47
2022/06/04 03:00:26;;;;;;;2.67;2.20;;;;;;;;;;10396121;28;20037;-49
2022/06/04 03:05:28;;;;;;;4.97;2.15;;;;;;;;;;10387909;28;20049;-49
2022/06/04 03:10:33;;;;;;;4.30;2.42;;;;;;;;;;10383100;28;20040;-48
2022/06/04 03:15:34;;;;;;;5.70;2.28;;;;;;;;;;10386358;28;20405;-49
2022/06/04 03:20:34;;;;;;;2.03;1.92;;;;;;;;;;10396438;28;20076;-48
2022/06/04 03:25:38;;;;;;;2.28;1.98;;;;;;;;;;10401958;28;20032;-48
2022/06/04 03:30:39;;;;;;;4.38;2.25;;;;;;;;;;10399334;28;20523;-48
2022/06/04 03:35:42;;;;;;;2.42;2.13;;;;;;;;;;10398620;28;20037;-49
2022/06/04 03:40:43;;;;;;;2.33;1.90;;;;;;;;;;10396078;28;20533;-49
2022/06/04 03:45:43;;;;;;;2.38;2.15;;;;;;;;;;10397314;28;20037;-48
2022/06/04 03:50:44;;;;;;;4.15;2.30;;;;;;;;;;10387632;28;20107;-48
2022/06/04 03:55:45;;;;;;;2.13;1.90;;;;;;;;;;10395384;28;20037;-49
2022/06/04 04:00:45;;;;;;;2.28;2.08;;;;;;;;;;10392183;28;20038;-48
2022/06/04 04:05:49;;;;;;;2.65;2.00;;;;;;;;;;10406604;28;20033;-48
2022/06/04 04:10:50;;;;;;;15.10;2.25;;;;;;;;;;10404534;28;20045;-47
2022/06/04 04:15:51;;;;;;;1.95;1.85;;;;;;;;;;10402812;28;20099;-47
2022/06/04 04:20:51;;;;;;;4.35;2.22;;;;;;;;;;10400532;28;20042;-48
2022/06/04 04:25:52;;;;;;;3.28;1.90;;;;;;;;;;10407612;28;20032;-48
2022/06/04 04:30:53;;;;;;;2.00;1.60;;;;;;;;;;10403507;28;20033;-47
2022/06/04 04:35:54;;;;;;;3.88;2.08;;;;;;;;;;10395662;28;20037;-47
2022/06/04 04:40:55;;;;;;;2.00;1.80;;;;;;;;;;10400484;28;20037;-47
2022/06/04 04:46:07;;;;;;;6.80;2.10;;;;;;;;;;10404052;28;20037;-47
2022/06/04 04:51:21;;;;;;;2.58;2.20;;;;;;;;;;10392465;28;20033;-47
2022/06/04 04:56:24;;;;;;;4.18;1.85;;;;;;;;;;10397659;28;20056;-48
2022/06/04 05:01:27;;;;;;;3.50;1.88;;;;;;;;;;10372433;28;20248;-47
2022/06/04 05:06:29;;;;;;;2.90;2.00;;;;;;;;;;10388506;28;20022;-47
2022/06/04 05:11:34;;;;;;;2.33;1.80;;;;;;;;;;10403822;28;20040;-48
2022/06/04 05:16:38;;;;;;;2.10;1.90;;;;;;;;;;10404401;28;20064;-47
2022/06/04 05:21:44;;;;;;;2.42;1.80;;;;;;;;;;10384957;28;20032;-47
2022/06/04 05:26:46;;;;;;;4.55;2.00;;;;;;;;;;10400745;28;20042;-47
2022/06/04 05:31:47;;;;;;;1.88;1.73;;;;;;;;;;10397125;28;20040;-47
2022/06/04 05:36:48;;;;;;;1.70;1.60;;;;;;;;;;10397577;28;20026;-48
2022/06/04 05:41:50;;;;;;;3.13;1.92;;;;;;;;;;10401985;28;20104;-48
2022/06/04 05:46:50;;;;;;;2.67;1.75;;;;;;;;;;10400593;28;20041;-48
2022/06/04 05:51:51;;;;;;;2.38;1.73;;;;;;;;;;10390932;28;20390;-48
2022/06/04 05:56:52;;;;;;;1.83;1.58;;;;;;;;;;10396738;28;20496;-47
2022/06/04 06:01:53;;;;;;;2.25;1.90;;;;;;;;;;10395677;28;20029;-47
2022/06/04 06:06:57;;;;;;;1.95;1.75;;;;;;;;;;10393639;28;20481;-48
2022/06/04 06:11:57;;;;;;;3.22;2.15;;;;;;;;;;10407174;28;20033;-49
2022/06/04 06:16:59;;;;;;;6.45;1.90;;;;;;;;;;10388905;28;20037;-47
2022/06/04 06:22:00;;;;;;;2.20;1.77;;;;;;;;;;10392147;28;20032;-49
2022/06/04 06:27:02;;;;;;;4.28;1.40;;;;;;;;;;10391019;28;20116;-47
2022/06/04 06:32:04;;;;;;;17.45;11.40;;;;;;;;;;10397613;28;20467;-48
2022/06/04 08:27:38;;;;;;;20.15;10.73;;;;;;;;;;10465456;28;20662;-45
2022/06/04 08:32:39;;;;;;;20.20;12.82;;;;;;;;;;10395879;28;20041;-44
2022/06/04 08:37:40;;;;;;;24.35;13.68;;;;;;;;;;10409728;28;20022;-43
2022/06/04 08:42:59;;;;;;;23.52;15.30;;;;;;;;;;10394840;28;20036;-42
2022/06/04 08:47:59;;;;;;;21.85;12.90;;;;;;;;;;10403227;28;20040;-42
2022/06/04 08:53:04;;;;;;;18.92;12.07;;;;;;;;;;10408870;28;20033;-42
2022/06/04 08:58:23;;;;;;;26.77;14.15;;;;;;;;;;10397063;28;20021;-40
2022/06/04 09:03:55;;;;;;;18.88;12.85;;;;;;;;;;10404525;28;20045;-42
2022/06/04 09:09:19;;;;;;;28.63;11.52;;;;;;;;;;10411637;28;20030;-44
2022/06/04 09:14:37;;;;;;;15.23;9.80;;;;;;;;;;10404208;28;20025;-42
2022/06/04 09:19:42;;;;;;;14.20;8.25;;;;;;;;;;10401299;28;20072;-42
2022/06/04 09:24:42;;;;;;;12.25;7.47;;;;;;;;;;10399493;28;20080;-40
2022/06/04 09:30:20;;;;;;;11.48;6.72;;;;;;;;;;10399235;28;20030;-42
2022/06/04 09:35:38;;;;;;;14.60;5.72;;;;;;;;;;10388153;28;20492;-42
2022/06/04 09:40:38;;;;;;;12.18;5.75;;;;;;;;;;10373311;28;20041;-41
2022/06/04 09:45:39;;;;;;;11.98;5.82;;;;;;;;;;10373256;28;20025;-41
2022/06/04 09:50:41;;;;;;;12.07;5.97;;;;;;;;;;10374640;28;20398;-40
2022/06/04 09:55:55;;;;;;;7.35;5.53;;;;;;;;;;10378849;28;20124;-44
2022/06/04 10:01:07;;;;;;;8.82;4.97;;;;;;;;;;10380543;28;20030;-43
2022/06/04 10:06:22;;;;;;;6.72;5.20;;;;;;;;;;10370645;28;20060;-43
2022/06/04 10:11:24;;;;;;;8.40;5.47;;;;;;;;;;10371706;28;20229;-43
2022/06/04 10:16:35;;;;;;;6.30;4.68;;;;;;;;;;10366983;28;20541;-44
2022/06/04 10:21:37;;;;;;;8.15;4.88;;;;;;;;;;10402570;28;20022;-46
2022/06/04 10:26:50;;;;;;;6.47;4.63;;;;;;;;;;10387162;28;20050;-45
2022/06/04 10:31:59;;;;;;;5.53;4.47;;;;;;;;;;10367647;28;20088;-42
2022/06/04 10:37:21;;;;;;;7.30;5.15;;;;;;;;;;10367912;28;20061;-42
2022/06/04 10:42:35;;;;;;;10.23;4.60;;;;;;;;;;10368892;28;20032;-45
2022/06/04 10:47:50;;;;;;;11.68;4.47;;;;;;;;;;10362567;28;20515;-42
2022/06/04 10:53:46;;;;;;;24.67;4.70;;;;;;;;;;10363920;28;20081;-49
2022/06/04 10:59:05;;;;;;;10.30;4.20;;;;;;;;;;10348832;28;20086;-45
2022/06/04 11:04:21;;;;;;;15.73;4.18;;;;;;;;;;10366391;28;20042;-46
2022/06/04 11:09:35;;;;;;;12.65;4.07;;;;;;;;;;10353872;28;20088;-47
2022/06/04 11:14:47;;;;;;;11.93;4.45;;;;;;;;;;10371902;28;20554;-49
2022/06/04 11:20:05;;;;;;;8.05;4.32;;;;;;;;;;10382754;28;20029;-50
2022/06/04 11:25:29;;;;;;;9.05;3.97;;;;;;;;;;10376174;28;20050;-47
2022/06/04 11:30:56;;;;;;;9.43;3.95;;;;;;;;;;10361044;28;20074;-46
2022/06/04 11:36:39;;;;;;;13.93;4.50;;;;;;;;;;10369315;28;20103;-44
2022/06/04 11:41:52;;;;;;;10.90;3.97;;;;;;;;;;10362590;28;20030;-43
2022/06/04 11:47:36;;;;;;;14.88;4.10;;;;;;;;;;10366048;28;20042;-42
2022/06/04 11:53:08;;;;;;;10.43;4.07;;;;;;;;;;10364518;28;20485;-46
2022/06/04 11:58:39;;;;;;;13.60;4.03;;;;;;;;;;10366362;28;20026;-43
2022/06/04 12:03:47;;;;;;;6.75;3.70;;;;;;;;;;10362917;28;20044;-47
2022/06/04 12:09:27;;;;;;;21.10;4.63;;;;;;;;;;10372419;28;20026;-45
2022/06/04 12:14:59;;;;;;;15.20;4.18;;;;;;;;;;10364564;28;20014;-42
2022/06/04 12:26:05;;;;;;;11.02;3.90;;;;;;;;;;10354081;28;20254;-42
2022/06/04 12:31:06;;;;;;;8.35;3.50;;;;;;;;;;10364431;28;20381;-42
2022/06/04 12:36:12;;;;;;;8.98;3.38;;;;;;;;;;10365501;28;20033;-43
2022/06/04 12:41:20;;;;;;;15.77;3.78;;;;;;;;;;10355812;28;20039;-43
2022/06/04 12:46:27;;;;;;;8.90;3.75;;;;;;;;;;10363949;28;20607;-43
2022/06/04 12:51:52;;;;;;;13.35;3.78;;;;;;;;;;10360626;28;20034;-44
2022/06/04 12:57:10;;;;;;;14.68;4.00;;;;;;;;;;10366084;28;20030;-43
2022/06/04 13:02:45;;;;;;;18.60;3.78;;;;;;;;;;10360803;28;20196;-44
2022/06/04 13:08:31;;;;;;;11.55;4.03;;;;;;;;;;10366293;28;20512;-43
2022/06/04 13:14:19;;;;;;;18.45;3.70;;;;;;;;;;10371696;28;20077;-45
2022/06/04 13:19:51;;;;;;;18.90;3.40;;;;;;;;;;10368370;28;20103;-44
2022/06/04 13:24:57;;;;;;;6.40;3.10;;;;;;;;;;10370899;28;20053;-44
2022/06/04 13:29:58;;;;;;;13.43;3.22;;;;;;;;;;10370538;28;20026;-44
2022/06/04 13:35:05;;;;;;;12.48;3.20;;;;;;;;;;10373369;28;20555;-47
2022/06/04 13:40:19;;;;;;;7.07;3.60;;;;;;;;;;10370371;28;20424;-45
2022/06/04 13:45:26;;;;;;;8.45;3.10;;;;;;;;;;10373022;28;20105;-43
2022/06/04 13:50:32;;;;;;;12.20;3.83;;;;;;;;;;10374594;28;20038;-43
2022/06/04 13:55:38;;;;;;;8.18;2.80;;;;;;;;;;10378895;28;20136;-43
2022/06/04 14:00:39;;;;;;;5.45;2.90;;;;;;;;;;10369563;28;20034;-42
2022/06/04 14:05:46;;;;;;;7.97;2.65;;;;;;;;;;10391942;28;20069;-43
2022/06/04 14:11:16;;;;;;;8.38;3.28;;;;;;;;;;10398773;28;20065;-43
2022/06/04 14:17:13;;;;;;;5.13;3.20;;;;;;;;;;10371836;28;20045;-43
2022/06/04 14:22:25;;;;;;;5.30;3.10;;;;;;;;;;10374113;28;20042;-43
2022/06/04 14:28:00;;;;;;;6.60;3.20;;;;;;;;;;10383817;28;20527;-43
2022/06/04 14:33:03;;;;;;;11.02;3.00;;;;;;;;;;10366857;28;20474;-42
2022/06/04 14:38:16;;;;;;;8.52;3.40;;;;;;;;;;10367032;28;20034;-43
2022/06/04 14:43:33;;;;;;;5.68;3.10;;;;;;;;;;10372790;28;20041;-43
2022/06/04 14:49:15;;;;;;;8.18;3.13;;;;;;;;;;10377382;28;20072;-43
2022/06/04 14:54:17;;;;;;;8.43;3.08;;;;;;;;;;10367327;28;20492;-43
2022/06/04 14:59:42;;;;;;;5.55;3.30;;;;;;;;;;10370018;28;20404;-43
2022/06/04 15:05:37;;;;;;;6.50;2.80;;;;;;;;;;10384006;28;20029;-42
2022/06/04 15:10:50;;;;;;;7.05;3.17;;;;;;;;;;10362935;28;20080;-43
2022/06/04 15:16:08;;;;;;;6.45;3.03;;;;;;;;;;10377373;28;20033;-43
2022/06/04 15:21:41;;;;;;;;;;;;;;;;;;10368448;28;20116;-43
2022/06/04 15:27:29;;;;;;;3.85;2.55;;;;;;;;;;10360541;28;19924;-44
2022/06/04 15:38:28;;;;;;;5.45;2.75;;;;;;;;;;10355887;28;20394;-42
2022/06/04 15:43:35;;;;;;;7.55;3.35;;;;;;;;;;10361545;28;20029;-44
2022/06/04 15:48:39;;;;;;;5.07;2.77;;;;;;;;;;10370540;28;20101;-44
2022/06/04 15:59:44;;;;;;;6.75;3.00;;;;;;;;;;10365632;28;20025;-46
2022/06/04 16:05:01;;;;;;;4.03;2.38;;;;;;;;;;10362230;28;20026;-45
2022/06/04 16:10:17;;;;;;;9.00;3.17;;;;;;;;;;10367149;28;20049;-46
2022/06/04 16:15:28;;;;;;;6.93;2.90;;;;;;;;;;10367748;28;20109;-44
2022/06/04 16:20:50;;;;;;;7.65;2.95;;;;;;;;;;10366135;28;20025;-45
2022/06/04 16:25:58;;;;;;;5.63;2.80;;;;;;;;;;10396005;28;20052;-45
2022/06/04 16:31:18;;;;;;;4.45;2.83;;;;;;;;;;10364437;28;20501;-45
2022/06/04 16:36:20;;;;;;;3.15;2.65;;;;;;;;;;10367561;28;20072;-44
2022/06/04 16:47:25;;;;;;;4.35;2.78;;;;;;;;;;10371527;28;20050;-44
2022/06/04 16:52:39;;;;;;;5.55;3.03;;;;;;;;;;10381824;28;20034;-44
2022/06/04 16:57:40;;;;;;;5.90;3.10;;;;;;;;;;10374709;28;20048;-45
2022/06/04 17:03:17;;;;;;;5.15;3.03;;;;;;;;;;10375658;28;20037;-44
2022/06/04 17:08:33;;;;;;;4.60;3.15;;;;;;;;;;10373652;28;20115;-44
2022/06/04 17:14:08;;;;;;;4.13;2.97;;;;;;;;;;10372517;28;20554;-45
2022/06/04 17:20:08;;;;;;;3.38;3.05;;;;;;;;;;10366666;28;20025;-47
2022/06/04 17:26:15;;;;;;;5.03;2.72;;;;;;;;;;10371533;28;20117;-44
2022/06/04 17:31:43;;;;;;;5.65;3.17;;;;;;;;;;10326031;28;20560;-44
2022/06/04 17:37:15;;;;;;;5.85;3.22;;;;;;;;;;10318202;28;20050;-44
2022/06/04 17:42:18;;;;;;;4.90;3.33;;;;;;;;;;10321040;28;20057;-45
2022/06/04 17:47:18;;;;;;;7.47;3.17;;;;;;;;;;10326929;28;20121;-45
2022/06/04 17:52:19;;;;;;;5.72;3.08;;;;;;;;;;10328219;28;20490;-43
2022/06/04 17:57:21;;;;;;;5.00;3.42;;;;;;;;;;10320080;28;20543;-44
2022/06/04 18:02:23;;;;;;;7.32;3.25;;;;;;;;;;10330029;28;20050;-43
2022/06/04 18:07:23;;;;;;;4.70;3.22;;;;;;;;;;10381996;28;20087;-44
2022/06/04 18:12:25;;;;;;;5.43;3.65;;;;;;;;;;10381843;28;20543;-43
2022/06/04 18:17:26;;;;;;;4.13;3.53;;;;;;;;;;10389337;28;20040;-44
2022/06/04 18:22:29;;;;;;;4.32;3.17;;;;;;;;;;10371608;28;20034;-43
2022/06/04 18:27:31;;;;;;;11.52;3.63;;;;;;;;;;10379421;28;20081;-43
2022/06/04 18:32:32;;;;;;;9.00;3.45;;;;;;;;;;10373876;28;20072;-44
2022/06/04 18:37:33;;;;;;;6.57;3.30;;;;;;;;;;10368047;28;20045;-44
2022/06/04 18:58:31;;;;;;;13.75;4.78;;;;;;;;;;10378256;28;20466;-44
2022/06/04 19:03:33;;;;;;;12.20;4.28;;;;;;;;;;10369937;28;20030;-43
2022/06/04 19:08:34;;;;;;;8.45;4.43;;;;;;;;;;10367612;28;20041;-43
2022/06/04 19:13:40;;;;;;;7.78;4.20;;;;;;;;;;10370820;28;20048;-44
2022/06/04 19:18:51;;;;;;;7.45;4.25;;;;;;;;;;10368278;28;20494;-43
2022/06/04 19:29:13;;;;;;;15.55;5.20;;;;;;;;;;10367188;28;20030;-43
2022/06/04 19:34:14;;;;;;;18.52;5.50;;;;;;;;;;10367608;28;20025;-43
2022/06/04 19:39:15;;;;;;;13.95;4.28;;;;;;;;;;10364610;28;20109;-44
2022/06/04 19:44:17;;;;;;;10.38;4.35;;;;;;;;;;10367086;28;20038;-43
2022/06/04 19:49:30;;;;;;;16.38;4.97;;;;;;;;;;10364479;28;20385;-43
2022/06/04 19:59:51;;;;;;;26.27;5.63;;;;;;;;;;10366006;28;20478;-43
2022/06/04 20:04:52;;;;;;;19.05;4.90;;;;;;;;;;10366839;28;20034;-43
2022/06/04 20:09:53;;;;;;;16.23;5.72;;;;;;;;;;10363006;28;20033;-44
2022/06/04 20:14:53;;;;;;;19.60;6.45;;;;;;;;;;10367931;28;20470;-44
2022/06/04 20:19:54;;;;;;;25.83;5.80;;;;;;;;;;10365546;28;20034;-43
2022/06/04 20:24:54;;;;;;;19.35;6.60;;;;;;;;;;10368050;28;20085;-43
2022/06/04 20:29:55;;;;;;;18.23;5.97;;;;;;;;;;10367039;28;20050;-43
2022/06/04 20:34:56;;;;;;;12.65;5.25;;;;;;;;;;10361406;28;20022;-43
2022/06/04 20:39:58;;;;;;;14.85;6.07;;;;;;;;;;10375242;28;20089;-43
2022/06/04 20:44:58;;;;;;;12.70;5.68;;;;;;;;;;10359536;28;20042;-44
2022/06/04 20:49:59;;;;;;;11.68;5.32;;;;;;;;;;10364895;28;20026;-43
2022/06/04 20:55:00;;;;;;;11.05;5.05;;;;;;;;;;10369004;28;20026;-43
2022/06/04 21:00:02;;;;;;;13.02;5.82;;;;;;;;;;10366751;28;20026;-44
2022/06/04 21:05:04;;;;;;;14.68;5.47;;;;;;;;;;10366443;28;20033;-44
2022/06/04 21:10:05;;;;;;;11.80;5.15;;;;;;;;;;10375072;28;20079;-45
2022/06/04 21:15:06;;;;;;;14.43;5.70;;;;;;;;;;10366139;28;20022;-44
2022/06/04 21:20:08;;;;;;;14.77;5.15;;;;;;;;;;10366360;28;20025;-43
2022/06/04 21:25:09;;;;;;;9.57;5.00;;;;;;;;;;10365130;28;20084;-43
2022/06/04 21:30:11;;;;;;;10.20;5.05;;;;;;;;;;10369070;28;20037;-44
2022/06/04 21:40:34;;;;;;;19.13;5.47;;;;;;;;;;10373105;28;20057;-43
2022/06/04 21:45:34;;;;;;;12.02;5.18;;;;;;;;;;10370848;28;20401;-44
2022/06/04 21:50:39;;;;;;;14.38;5.63;;;;;;;;;;10368973;28;20036;-43
2022/06/04 21:55:41;;;;;;;11.70;5.40;;;;;;;;;;10370175;28;20030;-44
2022/06/04 22:00:42;;;;;;;10.70;5.40;;;;;;;;;;10383975;28;20033;-43
2022/06/04 22:05:42;;;;;;;10.52;4.93;;;;;;;;;;10373903;28;20033;-43
2022/06/04 22:10:44;;;;;;;9.45;5.35;;;;;;;;;;10370614;28;20390;-43
2022/06/04 22:15:44;;;;;;;13.93;5.75;;;;;;;;;;10371810;28;20270;-43
2022/06/04 22:20:46;;;;;;;18.95;5.78;;;;;;;;;;10370951;28;20260;-44
2022/06/04 22:25:47;;;;;;;15.50;5.45;;;;;;;;;;10370479;28;20509;-43
2022/06/04 22:30:48;;;;;;;13.95;5.47;;;;;;;;;;10378018;28;20064;-44
2022/06/04 22:35:49;;;;;;;8.25;5.22;;;;;;;;;;10370832;28;20068;-43
2022/06/04 22:40:51;;;;;;;12.52;5.35;;;;;;;;;;10369169;28;20030;-44
2022/06/04 22:45:52;;;;;;;13.68;5.97;;;;;;;;;;10371695;28;20160;-43
2022/06/04 22:51:03;;;;;;;15.68;5.78;;;;;;;;;;10375208;28;20030;-43
2022/06/04 22:56:05;;;;;;;12.27;5.50;;;;;;;;;;10373770;28;20021;-43
2022/06/04 23:01:07;;;;;;;10.05;5.40;;;;;;;;;;10363350;28;20029;-43
2022/06/04 23:06:07;;;;;;;11.60;5.13;;;;;;;;;;10369401;28;20062;-43
2022/06/04 23:22:06;;;;;;;11.50;5.07;;;;;;;;;;10404038;28;20045;-43
2022/06/04 23:27:07;;;;;;;10.45;5.95;;;;;;;;;;10403167;28;20137;-43
2022/06/04 23:32:08;;;;;;;9.75;5.40;;;;;;;;;;10402894;28;20532;-44
2022/06/04 23:37:09;;;;;;;12.68;5.22;;;;;;;;;;10403156;28;20036;-44
2022/06/04 23:42:09;;;;;;;6.82;4.70;;;;;;;;;;10402778;28;20421;-44
2022/06/04 23:47:10;;;;;;;11.63;5.85;;;;;;;;;;10388968;28;20659;-44
2022/06/04 23:52:10;;;;;;;12.07;5.65;;;;;;;;;;10364924;28;20073;-45
2022/06/04 23:57:11;;;;;;;10.05;5.45;;;;;;;;;;10369714;28;20033;-44
